Time;durP1;ratioP1;P1;durP2;ratioP2;P2;SDS_P1;SDS_P2;PMS_P1;PMS_P2;Temp;Humidity;BMP_temperature;BMP_pressure;BME280_temperature;BME280_humidity;BME280_pressure;Samples;Min_cycle;Max_cycle;Signal;HPM_P1;HPM_P2
2023/05/22 00:02:05;;;;;;;12.50;11.17;;;21.10;99.90;;;;;;4973046;28;21025;-77
2023/05/22 00:04:33;;;;;;;13.30;12.10;;;21.10;99.90;;;;;;4974316;28;20437;-77
2023/05/22 00:07:03;;;;;;;13.10;11.90;;;21.10;99.90;;;;;;4973141;28;20454;-77
2023/05/22 00:09:31;;;;;;;13.30;12.20;;;21.10;99.90;;;;;;4974390;28;20449;-77
2023/05/22 00:12:00;;;;;;;13.00;11.90;;;21.10;99.90;;;;;;4973015;28;20536;-77
2023/05/22 00:14:28;;;;;;;12.53;11.43;;;21.10;99.90;;;;;;4974277;28;20496;-77
2023/05/22 00:16:57;;;;;;;13.50;12.10;;;21.10;99.90;;;;;;4974319;28;20579;-77
2023/05/22 00:19:25;;;;;;;13.03;11.77;;;21.10;99.90;;;;;;4974234;28;20454;-77
2023/05/22 00:21:53;;;;;;;12.27;11.07;;;21.10;99.90;;;;;;4973030;28;20455;-77
2023/05/22 00:24:23;;;;;;;12.77;11.50;;;21.00;99.90;;;;;;4974174;28;20456;-77
2023/05/22 00:26:51;;;;;;;12.63;11.43;;;21.00;99.90;;;;;;4972932;28;20477;-77
2023/05/22 00:29:20;;;;;;;13.60;11.60;;;21.00;99.90;;;;;;4974092;28;20469;-77
2023/05/22 00:31:48;;;;;;;12.87;11.67;;;21.00;99.90;;;;;;4972929;28;20457;-77
2023/05/22 00:34:16;;;;;;;12.27;11.07;;;21.00;99.90;;;;;;4972942;28;20452;-77
2023/05/22 00:36:45;;;;;;;11.50;10.40;;;21.00;99.90;;;;;;4974251;28;20470;-77
2023/05/22 00:39:13;;;;;;;12.57;11.43;;;21.00;99.90;;;;;;4972804;28;20481;-77
2023/05/22 00:41:42;;;;;;;12.60;11.30;;;20.90;99.90;;;;;;4973976;28;20474;-77
2023/05/22 00:44:11;;;;;;;11.07;10.10;;;20.90;99.90;;;;;;4974055;28;20445;-77
2023/05/22 00:46:39;;;;;;;11.93;10.80;;;20.90;99.90;;;;;;4972832;28;20466;-77
2023/05/22 00:49:08;;;;;;;12.63;11.50;;;20.90;99.90;;;;;;4972652;28;20821;-76
2023/05/22 00:51:36;;;;;;;12.50;11.40;;;20.90;99.90;;;;;;4974330;28;20496;-77
2023/05/22 00:54:05;;;;;;;11.83;10.73;;;20.90;99.90;;;;;;4972519;28;21010;-77
2023/05/22 00:56:34;;;;;;;11.90;10.80;;;20.80;99.90;;;;;;4976564;28;20468;-77
2023/05/22 00:59:04;;;;;;;12.50;11.40;;;20.80;99.90;;;;;;4976235;28;20481;-77
2023/05/22 01:01:37;;;;;;;11.93;10.90;;;20.80;99.90;;;;;;4977453;28;20440;-77
2023/05/22 01:04:08;;;;;;;12.50;11.37;;;20.80;99.90;;;;;;4977441;28;20831;-76
2023/05/22 01:06:37;;;;;;;12.57;11.47;;;20.70;99.90;;;;;;4976097;28;20807;-77
2023/05/22 01:09:05;;;;;;;12.00;10.90;;;20.70;99.90;;;;;;4975885;28;20473;-77
2023/05/22 01:11:42;;;;;;;12.00;10.67;;;20.70;99.90;;;;;;4975825;28;20831;-77
2023/05/22 01:14:23;;;;;;;12.90;11.57;;;20.60;99.90;;;;;;4975961;28;20492;-76
2023/05/22 01:17:00;;;;;;;12.60;11.50;;;20.60;99.90;;;;;;4975814;28;20505;-77
2023/05/22 01:20:00;;;;;;;12.23;10.93;;;20.60;99.90;;;;;;4977021;28;20954;-77
2023/05/22 01:22:57;;;;;;;13.40;12.10;;;20.50;99.90;;;;;;4975797;28;20441;-77
2023/05/22 01:25:56;;;;;;;11.93;10.90;;;20.50;99.90;;;;;;4976658;28;20501;-77
2023/05/22 01:29:02;;;;;;;13.07;11.90;;;20.50;99.90;;;;;;4977228;28;20823;-77
2023/05/22 01:31:36;;;;;;;13.13;12.00;;;20.40;99.90;;;;;;4977130;28;20998;-76
2023/05/22 01:34:07;;;;;;;13.40;12.13;;;20.40;99.90;;;;;;4977300;28;20438;-77
2023/05/22 01:36:37;;;;;;;12.13;11.03;;;20.30;99.90;;;;;;4975987;28;20465;-77
2023/05/22 01:39:06;;;;;;;12.43;11.33;;;20.30;99.90;;;;;;4976857;28;20488;-77
2023/05/22 01:41:35;;;;;;;12.20;11.20;;;20.30;99.90;;;;;;4975669;28;20482;-76
2023/05/22 01:44:03;;;;;;;13.43;12.13;;;20.20;99.90;;;;;;4975678;28;20450;-77
2023/05/22 01:46:33;;;;;;;13.23;12.13;;;20.20;99.90;;;;;;4975443;28;20465;-77
2023/05/22 01:49:01;;;;;;;13.47;12.27;;;20.20;99.90;;;;;;4975365;28;20470;-76
2023/05/22 01:51:52;;;;;;;12.83;11.63;;;20.10;99.90;;;;;;4975255;28;20442;-77
2023/05/22 01:54:30;;;;;;;12.97;11.90;;;20.10;99.90;;;;;;4975125;28;20473;-77
2023/05/22 01:57:05;;;;;;;13.00;11.90;;;20.00;99.90;;;;;;4976830;28;20472;-77
2023/05/22 01:59:40;;;;;;;14.33;12.83;;;20.00;99.90;;;;;;4975100;28;20453;-76
2023/05/22 02:02:11;;;;;;;14.23;13.03;;;19.90;99.90;;;;;;4975241;28;20504;-76
2023/05/22 02:04:44;;;;;;;12.13;11.03;;;19.90;99.90;;;;;;4976300;28;20429;-77
2023/05/22 02:07:16;;;;;;;12.43;11.20;;;19.80;99.90;;;;;;4975371;28;20456;-76
2023/05/22 02:09:47;;;;;;;13.03;11.93;;;19.80;99.90;;;;;;4976471;28;20481;-77
2023/05/22 02:12:15;;;;;;;13.43;12.20;;;19.70;99.90;;;;;;4974841;28;20504;-76
2023/05/22 02:14:44;;;;;;;13.80;12.60;;;19.70;99.90;;;;;;4974714;28;20847;-77
2023/05/22 02:17:16;;;;;;;13.37;12.27;;;19.60;99.90;;;;;;4974882;28;20450;-77
2023/05/22 02:19:45;;;;;;;14.80;13.40;;;19.60;99.90;;;;;;4976314;28;20887;-77
2023/05/22 02:22:13;;;;;;;14.00;12.63;;;19.60;99.90;;;;;;4974777;28;20445;-77
2023/05/22 02:24:43;;;;;;;12.90;11.73;;;19.50;99.90;;;;;;4976574;28;20472;-77
2023/05/22 02:27:12;;;;;;;13.87;12.67;;;19.50;99.90;;;;;;4974677;28;20449;-77
2023/05/22 02:29:40;;;;;;;13.47;12.30;;;19.40;99.90;;;;;;4974675;28;20505;-77
2023/05/22 02:32:10;;;;;;;12.80;11.70;;;19.40;99.90;;;;;;4974788;28;20460;-77
2023/05/22 02:34:39;;;;;;;15.10;13.70;;;19.30;99.90;;;;;;4975910;28;20446;-77
2023/05/22 02:37:07;;;;;;;13.47;12.30;;;19.30;99.90;;;;;;4976403;28;20524;-77
2023/05/22 02:39:36;;;;;;;13.97;12.77;;;19.30;99.90;;;;;;4975910;28;20529;-77
2023/05/22 02:42:05;;;;;;;14.80;13.30;;;19.20;99.90;;;;;;4974707;28;21009;-76
2023/05/22 02:44:33;;;;;;;12.73;11.63;;;19.20;99.90;;;;;;4992687;28;20477;-77
2023/05/22 02:47:02;;;;;;;15.07;13.67;;;19.20;99.90;;;;;;4989624;28;20442;-77
2023/05/22 02:49:30;;;;;;;13.40;12.20;;;19.20;99.90;;;;;;4976272;28;20465;-77
2023/05/22 02:52:00;;;;;;;13.83;12.63;;;19.20;99.90;;;;;;4975412;28;20453;-77
2023/05/22 02:54:28;;;;;;;14.47;13.17;;;19.20;99.90;;;;;;4974012;28;20464;-77
2023/05/22 02:56:56;;;;;;;14.10;12.90;;;19.10;99.90;;;;;;4974135;28;20473;-77
2023/05/22 02:59:24;;;;;;;14.30;13.10;;;19.10;99.90;;;;;;4975944;28;20442;-77
2023/05/22 03:01:53;;;;;;;14.30;12.93;;;19.10;99.90;;;;;;4975532;28;20560;-77
2023/05/22 03:04:24;;;;;;;14.27;12.87;;;19.10;99.90;;;;;;4975383;28;20829;-76
2023/05/22 03:06:53;;;;;;;15.50;13.90;;;19.10;99.90;;;;;;4973704;28;20498;-77
2023/05/22 03:09:23;;;;;;;14.83;13.43;;;19.00;99.90;;;;;;4973770;28;20476;-77
2023/05/22 03:11:51;;;;;;;17.70;16.13;;;19.00;99.90;;;;;;4973862;28;20473;-77
2023/05/22 03:14:19;;;;;;;14.87;13.57;;;19.00;99.90;;;;;;4975111;28;20437;-77
2023/05/22 03:16:48;;;;;;;13.93;12.83;;;19.00;99.90;;;;;;4973719;28;20477;-77
2023/05/22 03:19:17;;;;;;;13.60;12.40;;;19.00;99.90;;;;;;4973276;28;20480;-76
2023/05/22 03:21:47;;;;;;;14.03;12.67;;;18.90;99.90;;;;;;4973608;28;20449;-77
2023/05/22 03:24:15;;;;;;;17.70;16.00;;;18.90;99.90;;;;;;4973637;28;20958;-76
2023/05/22 03:26:45;;;;;;;15.53;14.17;;;18.90;99.90;;;;;;4974752;28;20450;-77
2023/05/22 03:29:20;;;;;;;15.00;13.47;;;18.90;99.90;;;;;;4974451;28;20462;-77
2023/05/22 03:31:48;;;;;;;14.00;12.60;;;18.80;99.90;;;;;;4973652;28;20449;-77
2023/05/22 03:34:17;;;;;;;16.10;14.63;;;18.80;99.90;;;;;;4973648;28;20449;-77
2023/05/22 03:36:47;;;;;;;13.63;12.43;;;18.80;99.90;;;;;;4973513;28;20465;-77
2023/05/22 03:39:17;;;;;;;16.10;13.40;;;18.80;99.90;;;;;;4973702;28;20489;-76
2023/05/22 03:41:56;;;;;;;13.73;12.53;;;18.80;99.90;;;;;;4973813;28;20490;-77
2023/05/22 03:44:25;;;;;;;13.73;12.37;;;18.80;99.90;;;;;;4973498;28;20461;-77
2023/05/22 03:46:54;;;;;;;15.00;13.70;;;18.80;99.90;;;;;;4973226;28;20465;-77
2023/05/22 03:49:22;;;;;;;14.37;13.17;;;18.70;99.90;;;;;;4974495;28;20472;-76
2023/05/22 03:51:51;;;;;;;14.00;12.60;;;18.70;99.90;;;;;;4973327;28;20441;-76
2023/05/22 03:54:19;;;;;;;14.90;13.60;;;18.70;99.90;;;;;;4973069;28;20468;-77
2023/05/22 03:56:47;;;;;;;14.93;13.53;;;18.70;99.90;;;;;;4973108;28;20474;-77
2023/05/22 03:59:17;;;;;;;15.13;13.80;;;18.70;99.90;;;;;;4973179;28;20884;-77
2023/05/22 04:01:47;;;;;;;14.60;13.30;;;18.70;99.90;;;;;;4973169;28;20450;-77
2023/05/22 04:04:16;;;;;;;14.60;13.30;;;18.70;99.90;;;;;;4973359;28;20464;-77
2023/05/22 04:06:45;;;;;;;14.63;13.43;;;18.60;99.90;;;;;;4973363;28;20470;-77
2023/05/22 04:09:14;;;;;;;14.43;13.13;;;18.60;99.90;;;;;;4974277;28;20474;-77
2023/05/22 04:11:42;;;;;;;13.50;12.37;;;18.60;99.90;;;;;;4974492;28;20447;-77
2023/05/22 04:14:11;;;;;;;18.00;16.40;;;18.60;99.90;;;;;;4973231;28;20496;-77
2023/05/22 04:16:40;;;;;;;15.77;14.30;;;18.60;99.90;;;;;;4973686;28;20508;-77
2023/05/22 04:19:09;;;;;;;14.97;13.67;;;18.60;99.90;;;;;;4974449;28;20441;-77
2023/05/22 04:21:38;;;;;;;14.83;13.53;;;18.60;99.90;;;;;;4972972;28;20824;-77
2023/05/22 04:24:08;;;;;;;14.00;12.80;;;18.60;99.90;;;;;;4972860;28;20958;-77
2023/05/22 04:26:37;;;;;;;16.50;14.87;;;18.60;99.90;;;;;;4974082;28;21057;-77
2023/05/22 04:29:09;;;;;;;15.17;13.87;;;18.60;99.90;;;;;;4972982;28;20450;-76
2023/05/22 04:31:37;;;;;;;14.13;12.93;;;18.60;99.90;;;;;;4975785;28;20470;-76
2023/05/22 04:34:07;;;;;;;14.20;13.10;;;18.60;99.90;;;;;;4977413;28;20508;-77
2023/05/22 04:36:35;;;;;;;15.50;14.00;;;18.60;99.90;;;;;;4976568;28;20528;-77
2023/05/22 04:39:05;;;;;;;15.03;13.80;;;18.60;99.90;;;;;;4978155;28;20492;-76
2023/05/22 04:41:33;;;;;;;15.20;13.40;;;18.60;99.90;;;;;;4976540;28;20910;-77
2023/05/22 04:44:03;;;;;;;14.63;13.43;;;18.50;99.90;;;;;;4977719;28;20452;-76
2023/05/22 04:46:33;;;;;;;15.20;13.90;;;18.50;99.90;;;;;;4977604;28;20509;-76
2023/05/22 04:49:02;;;;;;;14.47;13.07;;;18.50;99.90;;;;;;4976503;28;20508;-76
2023/05/22 04:51:31;;;;;;;14.50;13.10;;;18.50;99.90;;;;;;4976234;28;20469;-77
2023/05/22 04:54:00;;;;;;;13.67;12.43;;;18.50;99.90;;;;;;4976117;28;20456;-77
2023/05/22 04:56:29;;;;;;;13.43;12.33;;;18.50;99.90;;;;;;4977660;28;20472;-77
2023/05/22 04:59:07;;;;;;;14.90;13.60;;;18.50;99.90;;;;;;4976398;28;20441;-77
2023/05/22 05:01:37;;;;;;;15.60;14.10;;;18.50;99.90;;;;;;4976275;28;20972;-76
2023/05/22 05:04:05;;;;;;;17.73;16.03;;;18.60;99.90;;;;;;4977783;28;20437;-76
2023/05/22 05:06:36;;;;;;;13.93;12.63;;;18.60;99.90;;;;;;4977348;28;20457;-76
2023/05/22 05:09:05;;;;;;;16.40;15.00;;;18.60;99.90;;;;;;4977444;28;20426;-76
2023/05/22 05:11:33;;;;;;;14.40;13.07;;;18.60;99.90;;;;;;4976098;28;20465;-76
2023/05/22 05:14:01;;;;;;;15.87;14.47;;;18.60;99.90;;;;;;4976174;28;20424;-76
2023/05/22 05:16:29;;;;;;;15.17;13.87;;;18.60;99.90;;;;;;4975786;28;20473;-76
2023/05/22 05:18:57;;;;;;;15.13;13.60;;;18.60;99.90;;;;;;4975845;28;20449;-76
2023/05/22 05:21:26;;;;;;;13.50;12.40;;;18.60;99.90;;;;;;4975872;28;20441;-76
2023/05/22 05:23:59;;;;;;;13.80;12.60;;;18.70;99.90;;;;;;4975840;28;20826;-76
2023/05/22 05:26:27;;;;;;;14.93;13.47;;;18.70;99.90;;;;;;4977169;28;20440;-76
2023/05/22 05:28:56;;;;;;;14.67;13.23;;;18.70;99.90;;;;;;4975667;28;20457;-76
2023/05/22 05:31:29;;;;;;;13.17;11.87;;;18.70;99.90;;;;;;4975800;28;20470;-77
2023/05/22 05:34:12;;;;;;;13.10;11.83;;;18.70;99.90;;;;;;4975687;28;20450;-76
2023/05/22 05:37:02;;;;;;;12.90;11.70;;;18.80;99.90;;;;;;4975811;28;20461;-76
2023/05/22 05:39:33;;;;;;;12.87;11.43;;;18.80;99.90;;;;;;4975475;28;20453;-76
2023/05/22 05:42:03;;;;;;;14.70;13.20;;;18.80;99.90;;;;;;4975285;28;20473;-76
2023/05/22 05:44:32;;;;;;;13.27;12.10;;;18.90;99.90;;;;;;4975447;28;20528;-76
2023/05/22 05:47:00;;;;;;;13.20;11.90;;;18.90;99.90;;;;;;4975244;28;20450;-76
2023/05/22 05:49:29;;;;;;;12.17;11.03;;;18.90;99.90;;;;;;4975137;28;20520;-76
2023/05/22 05:51:58;;;;;;;14.17;11.07;;;18.90;99.90;;;;;;4975150;28;20480;-76
2023/05/22 05:54:27;;;;;;;11.37;10.30;;;18.90;99.90;;;;;;4975205;28;20827;-76
2023/05/22 05:57:01;;;;;;;11.90;10.80;;;19.00;99.90;;;;;;4976254;28;20516;-76
2023/05/22 05:59:31;;;;;;;10.83;9.63;;;19.00;99.90;;;;;;4975155;28;20530;-76
2023/05/22 06:02:18;;;;;;;12.17;9.87;;;19.00;99.90;;;;;;4976813;28;20414;-76
2023/05/22 06:04:48;;;;;;;11.53;9.90;;;19.00;99.90;;;;;;4974948;28;20532;-76
2023/05/22 06:07:18;;;;;;;10.53;9.43;;;19.00;99.90;;;;;;4974939;28;20450;-76
2023/05/22 06:09:49;;;;;;;10.73;9.63;;;19.00;99.90;;;;;;4975721;28;20442;-76
2023/05/22 06:12:28;;;;;;;11.13;10.07;;;19.10;99.90;;;;;;4974808;28;20473;-76
2023/05/22 06:14:56;;;;;;;12.07;10.83;;;19.10;99.90;;;;;;4974604;28;20497;-76
2023/05/22 06:17:26;;;;;;;11.80;10.77;;;19.10;99.90;;;;;;4974739;28;20545;-76
2023/05/22 06:19:54;;;;;;;10.90;9.90;;;19.10;99.90;;;;;;4974641;28;20453;-75
2023/05/22 06:22:24;;;;;;;12.50;10.77;;;19.10;99.90;;;;;;4974716;28;20978;-76
2023/05/22 06:24:53;;;;;;;10.73;9.73;;;19.10;99.90;;;;;;4974556;28;21017;-76
2023/05/22 06:27:26;;;;;;;11.17;9.97;;;19.20;99.90;;;;;;4974952;28;20961;-76
2023/05/22 06:29:56;;;;;;;11.20;9.93;;;19.20;99.90;;;;;;4974571;28;20438;-76
2023/05/22 06:32:29;;;;;;;10.80;9.80;;;19.20;99.90;;;;;;4974650;28;20472;-76
2023/05/22 06:34:58;;;;;;;12.50;10.80;;;19.20;99.90;;;;;;4975923;28;20461;-76
2023/05/22 06:37:30;;;;;;;13.43;12.13;;;19.20;99.90;;;;;;4974523;28;20540;-76
2023/05/22 06:39:58;;;;;;;12.27;11.13;;;19.20;99.90;;;;;;4974485;28;20481;-76
2023/05/22 06:42:40;;;;;;;12.23;11.13;;;19.20;99.90;;;;;;4974777;28;20516;-76
2023/05/22 06:45:30;;;;;;;12.67;11.43;;;19.20;99.90;;;;;;4974725;28;20477;-76
2023/05/22 06:48:28;;;;;;;12.80;11.47;;;19.20;99.90;;;;;;4966589;28;20454;-76
2023/05/22 06:51:25;;;;;;;11.80;10.60;;;19.20;99.90;;;;;;4971908;28;20457;-76
2023/05/22 06:54:05;;;;;;;11.50;10.30;;;19.30;99.90;;;;;;4973466;28;20515;-76
2023/05/22 06:56:36;;;;;;;12.17;10.97;;;19.30;99.90;;;;;;4974062;28;20477;-76
2023/05/22 06:59:10;;;;;;;12.13;11.13;;;19.40;99.90;;;;;;4973949;28;20442;-76
2023/05/22 07:01:58;;;;;;;12.00;10.80;;;19.40;99.90;;;;;;4975643;28;20449;-76
2023/05/22 07:04:44;;;;;;;12.10;10.90;;;19.40;99.90;;;;;;4974070;28;20465;-76
2023/05/22 07:07:17;;;;;;;11.70;10.47;;;19.40;99.90;;;;;;4975177;28;20827;-76
2023/05/22 07:09:45;;;;;;;14.13;12.63;;;19.50;99.90;;;;;;4973963;28;20536;-76
2023/05/22 07:12:13;;;;;;;11.63;10.63;;;19.50;99.90;;;;;;4973825;28;20479;-76
2023/05/22 07:14:42;;;;;;;11.60;10.50;;;19.50;99.90;;;;;;4973960;28;20533;-76
2023/05/22 07:17:11;;;;;;;13.20;12.00;;;19.60;99.90;;;;;;4974916;28;20445;-76
2023/05/22 07:19:44;;;;;;;13.80;12.60;;;19.60;99.90;;;;;;4974109;28;20954;-75
2023/05/22 07:22:12;;;;;;;12.73;11.40;;;19.60;99.90;;;;;;4974098;28;20450;-76
2023/05/22 07:24:42;;;;;;;13.00;11.80;;;19.60;99.90;;;;;;4973980;28;20533;-76
2023/05/22 07:27:11;;;;;;;13.53;12.10;;;19.60;99.90;;;;;;4973803;28;20532;-76
2023/05/22 07:29:41;;;;;;;13.93;10.93;;;19.60;99.90;;;;;;4974626;28;20450;-75
2023/05/22 07:32:10;;;;;;;16.67;13.20;;;19.60;99.90;;;;;;4974223;28;20466;-76
2023/05/22 07:34:39;;;;;;;13.93;12.63;;;19.60;99.90;;;;;;4973704;28;20449;-76
2023/05/22 07:37:09;;;;;;;13.37;12.13;;;19.60;99.90;;;;;;4974252;28;20500;-76
2023/05/22 07:39:39;;;;;;;14.13;12.83;;;19.60;99.90;;;;;;4973939;28;20436;-76
2023/05/22 07:42:07;;;;;;;14.60;13.20;;;19.60;99.90;;;;;;4973887;28;20549;-76
2023/05/22 07:44:43;;;;;;;14.20;12.73;;;19.60;99.90;;;;;;4973716;28;20449;-76
2023/05/22 07:47:12;;;;;;;14.20;12.90;;;19.60;99.90;;;;;;4973856;28;20485;-76
2023/05/22 07:49:41;;;;;;;14.27;13.00;;;19.60;99.90;;;;;;4974530;28;20470;-76
2023/05/22 07:52:11;;;;;;;14.13;12.87;;;19.60;99.90;;;;;;4973908;28;20477;-76
2023/05/22 07:54:40;;;;;;;13.77;12.47;;;19.60;99.90;;;;;;4974344;28;20544;-76
2023/05/22 07:57:11;;;;;;;14.07;12.70;;;19.60;99.90;;;;;;4973810;28;20450;-75
2023/05/22 07:59:42;;;;;;;14.60;12.97;;;19.60;99.90;;;;;;4974035;28;20453;-76
2023/05/22 08:02:12;;;;;;;14.90;13.60;;;19.60;99.90;;;;;;4973461;28;20438;-75
2023/05/22 08:04:41;;;;;;;14.83;13.20;;;19.60;99.90;;;;;;4976567;28;20457;-75
2023/05/22 08:07:09;;;;;;;14.60;12.60;;;19.50;99.90;;;;;;4978566;28;20441;-76
2023/05/22 08:09:37;;;;;;;13.57;12.27;;;19.50;99.90;;;;;;4978961;28;20511;-76
2023/05/22 08:12:07;;;;;;;15.37;13.97;;;19.60;99.90;;;;;;4977562;28;20522;-76
2023/05/22 08:14:35;;;;;;;13.83;12.63;;;19.60;99.90;;;;;;4979070;28;20472;-76
2023/05/22 08:17:03;;;;;;;16.17;14.77;;;19.60;99.90;;;;;;4979549;28;20540;-75
2023/05/22 08:19:33;;;;;;;16.70;15.30;;;19.60;99.90;;;;;;4977888;28;20442;-76
2023/05/22 08:22:01;;;;;;;15.60;14.10;;;19.50;99.90;;;;;;4977336;28;20455;-76
2023/05/22 08:24:30;;;;;;;16.43;14.80;;;19.50;99.90;;;;;;4978676;28;20472;-75
2023/05/22 08:26:59;;;;;;;16.40;14.80;;;19.60;99.90;;;;;;4977170;28;20991;-76
2023/05/22 08:29:29;;;;;;;17.00;15.20;;;19.60;99.90;;;;;;4978656;28;20504;-77
2023/05/22 08:31:57;;;;;;;16.97;14.73;;;19.50;99.90;;;;;;4979210;28;20626;-76
2023/05/22 08:34:25;;;;;;;17.27;15.47;;;19.60;99.90;;;;;;4977548;28;20456;-76
2023/05/22 08:36:55;;;;;;;20.20;16.47;;;19.60;99.90;;;;;;4977000;28;20469;-76
2023/05/22 08:39:23;;;;;;;17.20;15.50;;;19.60;99.90;;;;;;4978428;28;20484;-76
2023/05/22 08:41:51;;;;;;;17.57;15.97;;;19.60;99.90;;;;;;4978587;28;20437;-75
2023/05/22 08:44:19;;;;;;;19.10;15.10;;;19.60;99.90;;;;;;4978376;28;20787;-75
2023/05/22 08:46:48;;;;;;;21.50;16.30;;;19.70;99.90;;;;;;4977961;28;20457;-76
2023/05/22 08:49:17;;;;;;;16.93;15.30;;;19.70;99.90;;;;;;4977948;28;20484;-75
2023/05/22 08:51:52;;;;;;;16.63;15.13;;;19.70;99.90;;;;;;4978010;28;20444;-76
2023/05/22 08:54:26;;;;;;;16.30;14.80;;;19.70;99.90;;;;;;4978014;28;20451;-76
2023/05/22 08:56:54;;;;;;;15.60;14.03;;;19.70;99.90;;;;;;4978008;28;20515;-76
2023/05/22 08:59:24;;;;;;;15.43;14.00;;;19.70;99.90;;;;;;4978099;28;20422;-77
2023/05/22 09:01:53;;;;;;;16.00;14.37;;;19.80;99.90;;;;;;4977104;28;20504;-75
2023/05/22 09:04:22;;;;;;;15.00;13.63;;;19.70;99.90;;;;;;4978091;28;20489;-75
2023/05/22 09:06:51;;;;;;;13.50;12.23;;;19.70;99.90;;;;;;4976706;28;20477;-75
2023/05/22 09:09:20;;;;;;;14.03;12.83;;;19.80;99.90;;;;;;4978456;28;20472;-75
2023/05/22 09:11:49;;;;;;;14.57;13.27;;;19.70;99.90;;;;;;4978622;28;20504;-75
2023/05/22 09:14:18;;;;;;;14.40;13.07;;;19.70;99.90;;;;;;4977912;28;21046;-75
2023/05/22 09:16:49;;;;;;;14.37;12.50;;;19.80;99.90;;;;;;4977429;28;20994;-75
2023/05/22 09:19:18;;;;;;;14.40;13.00;;;19.70;99.90;;;;;;4976931;28;20444;-75
2023/05/22 09:21:46;;;;;;;17.43;12.20;;;19.70;99.90;;;;;;4976702;28;20831;-75
2023/05/22 09:24:15;;;;;;;14.30;13.10;;;19.70;99.90;;;;;;4977688;28;20436;-75
2023/05/22 09:26:43;;;;;;;21.20;13.50;;;19.70;99.90;;;;;;4978000;28;20466;-75
2023/05/22 09:29:12;;;;;;;14.80;13.30;;;19.80;99.90;;;;;;4976532;28;20867;-75
2023/05/22 09:31:42;;;;;;;15.03;13.63;;;19.70;99.90;;;;;;4977559;28;20488;-76
2023/05/22 09:34:14;;;;;;;15.70;13.30;;;19.70;99.90;;;;;;4976217;28;20469;-76
2023/05/22 09:36:42;;;;;;;15.90;14.37;;;19.70;99.90;;;;;;4976099;28;20509;-75
2023/05/22 09:39:10;;;;;;;16.17;13.30;;;19.80;99.90;;;;;;4977084;28;20452;-75
2023/05/22 09:41:39;;;;;;;14.63;13.17;;;19.80;99.90;;;;;;4977193;28;20514;-75
2023/05/22 09:44:13;;;;;;;15.30;13.90;;;19.80;99.90;;;;;;4975937;28;20886;-75
2023/05/22 09:46:42;;;;;;;14.27;13.07;;;19.80;99.90;;;;;;4975944;28;20843;-75
2023/05/22 09:49:11;;;;;;;15.40;13.57;;;19.90;99.90;;;;;;4975853;28;20481;-75
2023/05/22 09:51:47;;;;;;;16.43;13.67;;;19.90;99.90;;;;;;4977364;28;20903;-75
2023/05/22 09:54:16;;;;;;;17.40;13.93;;;19.90;99.90;;;;;;4975731;28;20489;-75
2023/05/22 09:56:48;;;;;;;14.30;12.63;;;20.00;99.90;;;;;;4976968;28;20489;-75
2023/05/22 09:59:22;;;;;;;14.87;13.27;;;20.00;99.90;;;;;;4977421;28;20488;-75
2023/05/22 10:01:50;;;;;;;15.40;13.50;;;20.10;99.90;;;;;;4975745;28;20481;-75
2023/05/22 10:04:22;;;;;;;15.20;13.70;;;20.20;99.90;;;;;;4975476;28;20881;-75
2023/05/22 10:06:52;;;;;;;19.33;13.93;;;20.30;99.90;;;;;;4975651;28;20485;-75
2023/05/22 10:09:25;;;;;;;15.90;14.30;;;20.30;99.90;;;;;;4976875;28;20786;-75
2023/05/22 10:11:57;;;;;;;15.40;14.10;;;20.40;99.90;;;;;;4975549;28;20544;-75
2023/05/22 10:14:26;;;;;;;16.43;14.87;;;20.40;99.90;;;;;;4977130;28;20463;-76
2023/05/22 10:17:00;;;;;;;16.77;15.07;;;20.40;99.90;;;;;;4976450;28;20453;-75
2023/05/22 10:19:31;;;;;;;16.13;14.47;;;20.40;99.90;;;;;;4976770;28;20500;-75
2023/05/22 10:22:01;;;;;;;16.33;14.83;;;20.50;99.90;;;;;;4976643;28;20426;-75
2023/05/22 10:24:30;;;;;;;18.10;16.30;;;20.50;99.90;;;;;;4976743;28;21018;-76
2023/05/22 10:26:59;;;;;;;15.67;14.27;;;20.40;99.90;;;;;;4976423;28;20457;-76
2023/05/22 10:29:36;;;;;;;16.77;15.30;;;20.40;99.90;;;;;;4975722;28;20446;-76
2023/05/22 10:32:14;;;;;;;15.23;13.83;;;20.40;99.90;;;;;;4976173;28;20509;-76
2023/05/22 10:35:00;;;;;;;17.37;15.77;;;20.40;99.90;;;;;;4974993;28;21022;-76
2023/05/22 10:37:42;;;;;;;16.93;15.40;;;20.40;99.90;;;;;;4974510;28;20862;-76
2023/05/22 10:40:14;;;;;;;17.20;15.80;;;20.40;99.90;;;;;;4976386;28;20457;-76
2023/05/22 10:42:43;;;;;;;17.50;15.90;;;20.40;99.90;;;;;;4974488;28;20748;-76
2023/05/22 10:45:13;;;;;;;20.03;18.13;;;20.40;99.90;;;;;;4975721;28;20449;-76
2023/05/22 10:47:42;;;;;;;20.33;18.53;;;20.40;99.90;;;;;;4975957;28;20445;-76
2023/05/22 10:50:11;;;;;;;18.80;17.20;;;20.40;99.90;;;;;;4975733;28;20437;-76
2023/05/22 10:52:40;;;;;;;19.23;17.37;;;20.40;99.90;;;;;;4975323;28;20534;-76
2023/05/22 10:55:10;;;;;;;20.17;18.07;;;20.40;99.90;;;;;;4974005;28;20473;-75
2023/05/22 10:57:38;;;;;;;20.10;18.17;;;20.40;99.90;;;;;;4975171;28;20943;-76
2023/05/22 11:00:09;;;;;;;19.13;17.63;;;20.40;99.90;;;;;;4975401;28;20445;-76
2023/05/22 11:02:43;;;;;;;19.17;17.47;;;20.30;99.90;;;;;;4975766;28;20434;-76
2023/05/22 11:05:36;;;;;;;19.07;17.47;;;20.40;99.90;;;;;;4973789;28;20478;-75
2023/05/22 11:08:30;;;;;;;19.63;17.90;;;20.40;99.90;;;;;;4973865;28;20446;-76
2023/05/22 11:11:09;;;;;;;21.50;19.17;;;20.30;99.90;;;;;;4975051;28;20493;-76
2023/05/22 11:13:38;;;;;;;19.90;18.00;;;20.30;99.90;;;;;;4975035;28;20556;-76
2023/05/22 11:16:09;;;;;;;19.73;17.77;;;20.30;99.90;;;;;;4975118;28;20484;-76
2023/05/22 11:18:38;;;;;;;20.07;17.87;;;20.30;99.90;;;;;;4973806;28;20951;-76
2023/05/22 11:21:12;;;;;;;18.37;16.67;;;20.30;99.90;;;;;;4973642;28;20466;-76
2023/05/22 11:23:40;;;;;;;20.20;18.27;;;20.30;99.90;;;;;;4975234;28;20781;-76
2023/05/22 11:26:21;;;;;;;20.17;18.37;;;20.30;99.90;;;;;;4973546;28;20466;-76
2023/05/22 11:28:50;;;;;;;19.33;17.63;;;20.40;99.90;;;;;;4975498;28;20749;-76
2023/05/22 11:31:19;;;;;;;21.00;18.87;;;20.40;99.90;;;;;;4975024;28;20470;-76
2023/05/22 11:33:49;;;;;;;21.20;19.27;;;20.40;99.90;;;;;;4974583;28;20477;-75
2023/05/22 11:36:17;;;;;;;20.87;18.70;;;20.40;99.90;;;;;;4973768;28;20904;-77
2023/05/22 11:38:45;;;;;;;21.23;19.33;;;20.50;99.90;;;;;;4973886;28;20540;-76
2023/05/22 11:41:15;;;;;;;19.47;17.73;;;20.50;99.90;;;;;;4974695;28;20525;-75
2023/05/22 11:43:44;;;;;;;20.17;18.10;;;20.50;99.90;;;;;;4974810;28;20831;-76
2023/05/22 11:46:13;;;;;;;20.17;18.33;;;20.50;99.90;;;;;;4974585;28;20457;-76
2023/05/22 11:48:42;;;;;;;18.07;16.37;;;20.50;99.90;;;;;;4973385;28;20454;-76
2023/05/22 11:51:12;;;;;;;20.10;18.20;;;20.50;99.90;;;;;;4974808;28;20444;-76
2023/05/22 11:53:41;;;;;;;19.93;18.23;;;20.60;99.90;;;;;;4974530;28;20464;-76
2023/05/22 11:56:10;;;;;;;19.23;17.37;;;20.60;99.90;;;;;;4974786;28;20467;-76
2023/05/22 11:58:38;;;;;;;20.37;18.50;;;20.60;99.90;;;;;;4974556;28;20469;-75
2023/05/22 12:01:06;;;;;;;19.90;18.20;;;20.60;99.90;;;;;;4974531;28;20441;-76
2023/05/22 12:03:34;;;;;;;20.67;18.77;;;20.60;99.90;;;;;;4974453;28;20806;-76
2023/05/22 12:06:03;;;;;;;19.10;17.30;;;20.60;99.90;;;;;;4975021;28;20559;-76
2023/05/22 12:08:32;;;;;;;21.37;19.47;;;20.60;99.90;;;;;;4974033;28;20460;-76
2023/05/22 12:11:00;;;;;;;21.20;18.97;;;20.70;99.90;;;;;;4974783;28;20441;-76
2023/05/22 12:13:29;;;;;;;20.40;18.50;;;20.70;99.90;;;;;;4974725;28;20433;-74
2023/05/22 12:16:00;;;;;;;21.60;19.80;;;20.70;99.90;;;;;;4974756;28;20461;-75
2023/05/22 12:18:35;;;;;;;20.93;18.63;;;20.80;99.90;;;;;;4974736;28;20476;-75
2023/05/22 12:21:06;;;;;;;20.23;18.43;;;20.90;99.90;;;;;;4973678;28;20480;-75
2023/05/22 12:23:35;;;;;;;20.27;18.47;;;20.90;99.90;;;;;;4976337;28;20429;-75
2023/05/22 12:26:09;;;;;;;19.80;18.00;;;21.00;99.90;;;;;;4976677;28;20484;-75
2023/05/22 12:28:38;;;;;;;19.53;17.63;;;21.10;99.90;;;;;;4974853;28;20434;-75
2023/05/22 12:31:06;;;;;;;21.10;18.80;;;21.10;99.90;;;;;;4975063;28;20472;-76
2023/05/22 12:33:35;;;;;;;19.40;17.50;;;21.20;99.90;;;;;;4973320;28;20456;-75
2023/05/22 12:36:08;;;;;;;18.20;16.57;;;21.20;99.90;;;;;;4974842;28;20469;-75
2023/05/22 12:38:38;;;;;;;19.77;17.83;;;21.30;99.90;;;;;;4975221;28;20986;-76
2023/05/22 12:41:06;;;;;;;24.97;19.30;;;21.40;99.90;;;;;;4982643;28;20418;-75
2023/05/22 12:43:35;;;;;;;21.97;17.87;;;21.40;99.90;;;;;;4990967;28;20472;-75
2023/05/22 12:46:03;;;;;;;21.40;19.23;;;21.40;99.90;;;;;;4982839;28;20507;-76
2023/05/22 12:48:31;;;;;;;21.13;19.13;;;21.50;99.90;;;;;;4975808;28;20456;-76